Time;durP1;ratioP1;P1;durP2;ratioP2;P2;SDS_P1;SDS_P2;PMS_P1;PMS_P2;Temp;Humidity;BMP_temperature;BMP_pressure;BME280_temperature;BME280_humidity;BME280_pressure;Samples;Min_cycle;Max_cycle;Signal;HPM_P1;HPM_P2
2022/12/19 00:01:22;;;;;;;1.38;0.70;;;;;;;12.52;35.24;100600.13;6041937;23;20042;-88
2022/12/19 00:03:49;;;;;;;1.85;0.68;;;;;;;12.55;35.41;100616.66;6017028;23;20312;-88
2022/12/19 00:06:15;;;;;;;0.85;0.55;;;;;;;12.54;35.38;100615.00;6041772;23;20466;-88
2022/12/19 00:08:41;;;;;;;0.80;0.50;;;;;;;12.57;35.38;100619.97;6041545;23;20348;-88
2022/12/19 00:11:07;;;;;;;1.75;0.73;;;;;;;12.58;35.83;100637.72;6042501;23;20010;-88
2022/12/19 00:13:35;;;;;;;1.08;0.60;;;;;;;12.61;35.43;100641.03;6041673;23;20371;-88
2022/12/19 00:16:02;;;;;;;0.98;0.50;;;;;;;12.56;35.53;100623.69;6018895;23;20388;-88
2022/12/19 00:18:28;;;;;;;1.33;0.65;;;;;;;12.57;35.41;100630.72;6042071;23;20432;-88
2022/12/19 00:20:58;;;;;;;1.17;0.57;;;;;;;12.58;35.11;100639.56;6065057;23;20006;-87
2022/12/19 00:23:24;;;;;;;0.98;0.50;;;;;;;12.57;35.24;100641.44;6018164;23;20014;-88
2022/12/19 00:25:50;;;;;;;0.70;0.50;;;;;;;12.59;35.42;100644.75;6064878;23;20313;-88
2022/12/19 00:28:15;;;;;;;0.95;0.52;;;;;;;12.56;35.39;100638.94;6041987;23;20010;-87
2022/12/19 00:30:47;;;;;;;0.55;0.40;;;;;;;12.55;35.13;100626.53;6041585;23;20435;-88
2022/12/19 00:33:13;;;;;;;1.23;0.50;;;;;;;12.62;35.26;100640.00;6042160;23;20002;-88
2022/12/19 00:35:38;;;;;;;1.25;0.70;;;;;;;12.65;35.17;100644.97;6041869;23;20097;-88
2022/12/19 00:38:04;;;;;;;1.70;0.50;;;;;;;12.58;35.16;100637.72;6038782;23;20395;-88
2022/12/19 00:40:30;;;;;;;1.13;0.50;;;;;;;12.61;35.19;100641.88;6041753;23;20010;-88
2022/12/19 00:42:55;;;;;;;0.65;0.52;;;;;;;12.55;35.34;100643.44;6016977;23;20014;-87
2022/12/19 00:45:21;;;;;;;1.17;0.57;;;;;;;12.49;35.35;100643.44;6041592;23;20014;-87
2022/12/19 00:47:47;;;;;;;1.00;0.60;;;;;;;12.59;35.17;100655.47;6066057;23;20017;-87
2022/12/19 00:50:13;;;;;;;0.63;0.50;;;;;;;12.64;35.02;100668.31;6042525;23;20013;-87
2022/12/19 00:52:38;;;;;;;1.27;0.50;;;;;;;12.58;35.23;100661.84;6066350;23;20006;-87
2022/12/19 00:55:04;;;;;;;0.90;0.68;;;;;;;12.50;35.34;100651.25;6040936;23;20041;-87
2022/12/19 00:57:33;;;;;;;1.05;0.70;;;;;;;12.61;35.20;100675.88;6042080;23;20053;-87
2022/12/19 00:59:59;;;;;;;0.60;0.30;;;;;;;12.64;35.43;100675.50;6042633;23;20089;-87
2022/12/19 01:02:24;;;;;;;0.45;0.40;;;;;;;12.64;35.15;100678.16;6040808;23;20034;-87
2022/12/19 01:04:53;;;;;;;0.90;0.60;;;;;;;12.66;35.39;100676.13;6041034;23;20443;-87
2022/12/19 01:07:19;;;;;;;1.55;0.60;;;;;;;12.65;34.97;100682.53;6018204;23;20339;-87
2022/12/19 01:09:45;;;;;;;0.85;0.50;;;;;;;12.71;34.78;100689.78;6042184;23;20093;-87
2022/12/19 01:14:55;;;;;;;;;;;;;;;12.69;35.20;100691.81;6069746;23;20077;-87
2022/12/19 01:17:26;;;;;;;1.77;0.63;;;;;;;12.66;35.28;100689.53;6064757;23;19913;-88
2022/12/19 01:19:52;;;;;;;0.60;0.43;;;;;;;12.69;34.97;100687.28;6041167;23;20030;-87
2022/12/19 01:22:17;;;;;;;1.83;0.73;;;;;;;12.66;34.93;100684.16;6041349;23;20532;-87
2022/12/19 01:24:43;;;;;;;1.08;0.45;;;;;;;12.65;35.20;100682.53;6040233;23;20360;-87
2022/12/19 01:27:08;;;;;;;0.70;0.40;;;;;;;12.69;34.92;100686.47;6041101;23;20098;-87
2022/12/19 01:29:34;;;;;;;2.13;0.47;;;;;;;12.68;34.84;100700.91;6064541;23;20002;-87
2022/12/19 01:32:00;;;;;;;0.68;0.40;;;;;;;12.75;35.15;100707.97;6065092;23;20006;-87
2022/12/19 01:34:26;;;;;;;1.23;0.50;;;;;;;12.67;35.06;100689.34;6042216;23;20006;-87
2022/12/19 01:36:52;;;;;;;1.15;0.30;;;;;;;12.73;35.02;100699.31;6041351;23;20010;-87
2022/12/19 01:39:18;;;;;;;1.33;0.50;;;;;;;12.74;34.97;100705.50;6038714;23;20010;-87
2022/12/19 01:41:43;;;;;;;0.80;0.40;;;;;;;12.70;35.01;100697.00;6039874;23;20283;-87
2022/12/19 01:44:09;;;;;;;0.70;0.40;;;;;;;12.77;34.95;100710.47;6042335;23;20042;-87
2022/12/19 01:46:48;;;;;;;1.63;0.70;;;;;;;12.76;34.73;100709.66;6064504;23;20093;-87
2022/12/19 01:49:17;;;;;;;2.85;0.70;;;;;;;12.59;35.03;100693.00;6042983;23;20010;-87
2022/12/19 01:51:44;;;;;;;0.73;0.57;;;;;;;12.68;35.04;100711.66;6017614;23;20017;-87
2022/12/19 01:54:12;;;;;;;1.02;0.60;;;;;;;12.72;35.14;100712.91;6016918;23;19999;-87
2022/12/19 01:56:40;;;;;;;1.40;0.40;;;;;;;12.72;35.06;100712.91;6018240;23;20515;-87
2022/12/19 01:59:08;;;;;;;0.68;0.50;;;;;;;12.79;34.84;100719.13;6016103;23;20010;-86
2022/12/19 02:01:34;;;;;;;3.33;0.82;;;;;;;12.66;34.69;100695.75;6018678;23;20010;-87
2022/12/19 02:04:00;;;;;;;1.08;0.57;;;;;;;12.72;34.78;100715.59;6041455;23;20033;-86
2022/12/19 02:06:27;;;;;;;1.70;0.50;;;;;;;12.69;34.89;100721.31;6040323;23;20451;-87
2022/12/19 02:08:53;;;;;;;1.40;0.60;;;;;;;12.73;35.09;100722.63;6067320;23;20006;-86
2022/12/19 02:11:19;;;;;;;1.75;0.47;;;;;;;12.78;34.86;100722.88;6041121;23;20033;-87
2022/12/19 02:13:44;;;;;;;1.33;0.50;;;;;;;12.81;34.84;100722.47;6043598;23;20009;-87
2022/12/19 02:16:34;;;;;;;1.00;0.50;;;;;;;12.87;34.59;100732.41;6044347;23;20415;-87
2022/12/19 02:19:12;;;;;;;1.33;0.43;;;;;;;12.88;34.85;100730.56;6090248;23;20009;-86
2022/12/19 02:21:40;;;;;;;0.60;0.40;;;;;;;12.83;34.65;100725.78;6092458;23;20375;-86
2022/12/19 02:24:40;;;;;;;1.02;0.45;;;;;;;12.82;34.76;100729.50;6066829;23;20009;-86
2022/12/19 02:27:17;;;;;;;2.05;0.65;;;;;;;12.79;34.80;100724.50;6043825;23;20080;-86
2022/12/19 02:30:03;;;;;;;0.95;0.50;;;;;;;12.91;34.83;100731.00;6044144;23;20041;-87
2022/12/19 02:32:47;;;;;;;0.43;0.40;;;;;;;12.82;34.79;100724.13;6066805;23;20097;-87
2022/12/19 02:35:22;;;;;;;1.55;0.63;;;;;;;12.78;34.37;100715.63;6045046;23;20010;-86
2022/12/19 02:37:57;;;;;;;0.63;0.40;;;;;;;12.78;34.65;100736.28;6063931;23;20002;-86
2022/12/19 02:40:25;;;;;;;0.98;0.60;;;;;;;12.91;34.46;100743.59;6020451;23;20481;-86
2022/12/19 02:42:57;;;;;;;1.30;0.50;;;;;;;12.85;34.78;100747.88;6019915;23;20445;-86
2022/12/19 02:45:23;;;;;;;1.08;0.47;;;;;;;12.94;34.67;100762.81;6018472;23;20018;-86
2022/12/19 02:47:49;;;;;;;0.82;0.45;;;;;;;12.94;34.47;100760.13;6043342;23;20093;-86
2022/12/19 02:50:15;;;;;;;0.73;0.60;;;;;;;12.95;34.43;100769.84;6042735;23;20588;-86
2022/12/19 02:52:43;;;;;;;1.05;0.45;;;;;;;12.91;34.70;100759.69;6041787;23;20121;-86
2022/12/19 02:55:27;;;;;;;0.70;0.38;;;;;;;12.98;34.26;100779.34;6019034;23;20002;-86
2022/12/19 02:58:05;;;;;;;0.75;0.40;;;;;;;12.98;34.62;100782.03;6046725;23;20018;-86
2022/12/19 03:00:31;;;;;;;1.08;0.30;;;;;;;12.97;34.48;100775.03;6043020;23;20014;-86
2022/12/19 03:03:41;;;;;;;0.68;0.43;;;;;;;13.01;34.26;100784.31;6042361;23;20005;-86
2022/12/19 03:06:14;;;;;;;1.10;0.50;;;;;;;12.98;34.41;100781.19;6058665;23;20565;-86
2022/12/19 03:08:48;;;;;;;0.93;0.35;;;;;;;13.00;34.46;100785.34;6017747;23;20011;-86
2022/12/19 03:11:14;;;;;;;0.85;0.47;;;;;;;12.96;34.41;100776.84;6019779;23;20467;-86
2022/12/19 03:13:54;;;;;;;0.45;0.30;;;;;;;12.98;34.00;100775.84;6043406;23;20046;-86
2022/12/19 03:16:20;;;;;;;0.70;0.40;;;;;;;12.94;34.48;100784.25;6020403;23;20052;-86
2022/12/19 03:18:45;;;;;;;1.00;0.40;;;;;;;13.02;34.24;100782.47;6066616;23;20038;-86
2022/12/19 03:21:21;;;;;;;1.10;0.45;;;;;;;13.00;34.42;100795.25;6019312;23;20311;-86
2022/12/19 03:23:47;;;;;;;0.40;0.35;;;;;;;13.02;34.30;100803.94;6044450;23;20002;-86
2022/12/19 03:26:23;;;;;;;1.45;0.60;;;;;;;12.86;34.09;100784.41;6043132;23;20388;-86
2022/12/19 03:28:56;;;;;;;0.55;0.40;;;;;;;13.03;34.20;100808.28;6017577;23;20006;-86
2022/12/19 03:31:23;;;;;;;1.65;0.55;;;;;;;12.92;34.20;100805.09;6041562;23;20321;-86
2022/12/19 03:33:51;;;;;;;0.55;0.40;;;;;;;12.94;34.13;100802.22;6019541;23;20017;-86
2022/12/19 03:36:21;;;;;;;0.57;0.40;;;;;;;12.92;34.29;100804.28;6040275;23;20372;-85
2022/12/19 03:38:53;;;;;;;0.55;0.30;;;;;;;12.99;34.12;100810.53;6018179;23;20096;-85
2022/12/19 03:43:07;;;;;;;0.77;0.40;;;;;;;12.85;34.10;100806.91;6042508;23;20014;-85
2022/12/19 03:44:05;;;;;;;0.50;0.40;;;;;;;12.88;34.28;100809.19;6070395;23;20002;-85
2022/12/19 03:46:31;;;;;;;1.92;0.38;;;;;;;12.89;34.34;100821.56;6041952;23;20041;-85
2022/12/19 03:48:57;;;;;;;0.98;0.50;;;;;;;12.77;34.57;100801.66;6042518;23;20421;-85
2022/12/19 03:51:31;;;;;;;0.70;0.40;;;;;;;12.91;34.41;100822.19;6042245;23;20034;-85
2022/12/19 03:54:00;;;;;;;1.55;0.52;;;;;;;13.01;34.10;100834.47;6042559;23;20420;-85
2022/12/19 03:56:39;;;;;;;0.52;0.40;;;;;;;13.02;34.25;100844.19;6065650;23;20058;-85
2022/12/19 04:00:03;;;;;;;1.13;0.47;;;;;;;12.86;34.52;100808.53;6041533;23;20006;-85
2022/12/19 04:02:30;;;;;;;0.80;0.40;;;;;;;12.95;34.33;100831.56;5950065;24;20125;-86
2022/12/19 04:04:58;;;;;;;0.85;0.47;;;;;;;12.97;34.23;100842.09;6006534;23;20455;-85
2022/12/19 04:07:24;;;;;;;0.75;0.40;;;;;;;12.91;34.38;100832.94;6017749;23;20017;-86
2022/12/19 04:09:50;;;;;;;0.65;0.40;;;;;;;13.01;34.24;100848.72;6042593;23;20006;-85
2022/12/19 04:12:21;;;;;;;0.57;0.35;;;;;;;12.99;34.07;100852.59;6042784;23;20343;-85
2022/12/19 04:14:47;;;;;;;1.63;0.40;;;;;;;13.00;33.94;100857.78;6041967;23;20331;-85
2022/12/19 04:17:28;;;;;;;0.50;0.40;;;;;;;12.94;34.14;100853.19;6041952;23;20017;-85
2022/12/19 04:20:14;;;;;;;0.90;0.40;;;;;;;12.89;34.23;100851.09;6020525;23;20030;-86
2022/12/19 04:22:42;;;;;;;0.73;0.50;;;;;;;12.93;34.19;100865.75;6018480;23;20284;-85
2022/12/19 04:25:21;;;;;;;1.42;0.50;;;;;;;12.95;34.10;100863.75;6039173;23;20009;-85
2022/12/19 04:27:52;;;;;;;0.52;0.30;;;;;;;12.94;33.96;100867.44;6019198;23;20037;-86
2022/12/19 04:30:18;;;;;;;0.55;0.40;;;;;;;12.92;34.03;100863.28;6040301;23;20471;-85
2022/12/19 04:32:44;;;;;;;1.30;0.50;;;;;;;12.94;34.08;100878.16;6015999;23;20078;-86
2022/12/19 04:35:10;;;;;;;1.48;0.40;;;;;;;12.95;33.96;100893.25;6016210;23;20023;-86
2022/12/19 04:37:36;;;;;;;0.95;0.50;;;;;;;12.95;34.19;100906.66;6041489;23;20006;-85
2022/12/19 04:40:02;;;;;;;1.60;0.60;;;;;;;12.96;34.47;100913.69;6040514;23;20060;-86
2022/12/19 04:42:28;;;;;;;1.10;0.40;;;;;;;12.99;34.37;100914.31;6018567;23;20065;-85
2022/12/19 04:44:56;;;;;;;1.80;0.50;;;;;;;13.02;34.09;100921.97;6039949;23;20093;-85
2022/12/19 04:47:22;;;;;;;1.10;0.40;;;;;;;13.00;34.14;100924.03;6042767;23;20093;-86
2022/12/19 04:49:48;;;;;;;0.85;0.50;;;;;;;12.98;34.19;100913.50;6018214;23;20047;-86
2022/12/19 04:52:13;;;;;;;1.30;0.47;;;;;;;13.03;33.98;100926.34;6040388;23;20085;-85
2022/12/19 04:54:39;;;;;;;0.60;0.45;;;;;;;12.95;34.20;100921.91;6016319;23;20006;-86
2022/12/19 04:57:04;;;;;;;1.13;0.50;;;;;;;13.01;34.13;100931.06;6016667;23;20694;-85
2022/12/19 04:59:30;;;;;;;1.33;0.65;;;;;;;13.03;34.15;100929.03;6018185;23;20384;-86
2022/12/19 05:01:56;;;;;;;1.05;0.57;;;;;;;12.96;34.07;100927.09;6040400;23;20103;-85
2022/12/19 05:04:22;;;;;;;1.10;0.60;;;;;;;13.04;34.08;100933.34;6042355;23;20002;-86
2022/12/19 05:06:47;;;;;;;1.13;0.40;;;;;;;13.00;34.20;100926.72;6041793;23;20041;-85
2022/12/19 05:09:13;;;;;;;1.77;0.55;;;;;;;13.01;34.08;100931.91;6017532;23;20010;-85
2022/12/19 05:11:38;;;;;;;0.68;0.40;;;;;;;13.07;34.02;100944.56;6063914;23;20338;-86
2022/12/19 05:14:04;;;;;;;0.47;0.40;;;;;;;13.03;34.09;100939.75;6017754;23;20010;-85
2022/12/19 05:16:30;;;;;;;0.88;0.40;;;;;;;13.04;34.03;100930.66;6063299;23;20041;-86
2022/12/19 05:18:55;;;;;;;0.45;0.40;;;;;;;13.03;34.01;100934.41;6037492;23;20384;-86
2022/12/19 05:21:21;;;;;;;1.08;0.35;;;;;;;13.10;33.95;100946.84;6039704;23;20006;-85
2022/12/19 05:23:48;;;;;;;0.63;0.40;;;;;;;13.04;34.05;100934.22;6039099;23;20026;-85
2022/12/19 05:26:14;;;;;;;1.55;0.50;;;;;;;12.96;34.07;100918.22;6065776;23;20082;-86
2022/12/19 05:28:39;;;;;;;0.55;0.35;;;;;;;13.07;34.13;100932.97;6018012;23;20054;-86
2022/12/19 05:31:07;;;;;;;0.57;0.40;;;;;;;13.09;34.15;100944.34;6017431;23;20018;-86
2022/12/19 05:33:32;;;;;;;0.82;0.50;;;;;;;13.06;34.14;100934.03;6017525;23;20392;-85
2022/12/19 05:35:58;;;;;;;1.08;0.38;;;;;;;13.09;33.84;100941.66;6018435;23;20074;-85
2022/12/19 05:38:25;;;;;;;1.42;0.60;;;;;;;13.04;33.98;100939.56;6016463;23;20015;-86
2022/12/19 05:40:56;;;;;;;0.40;0.32;;;;;;;13.02;33.74;100933.56;6018133;23;20001;-86
2022/12/19 05:43:21;;;;;;;0.80;0.40;;;;;;;13.11;34.08;100963.81;6041332;23;20399;-86
2022/12/19 05:45:47;;;;;;;1.98;0.47;;;;;;;13.07;34.34;100959.81;6016774;23;20081;-85
2022/12/19 05:48:13;;;;;;;1.02;0.40;;;;;;;13.03;34.27;100950.50;6064642;23;20390;-85
2022/12/19 05:50:38;;;;;;;1.42;0.60;;;;;;;13.13;33.78;100970.63;6038805;23;20010;-86
2022/12/19 05:53:04;;;;;;;0.63;0.30;;;;;;;13.08;33.68;100961.50;6016256;23;20017;-85
2022/12/19 05:55:30;;;;;;;0.75;0.60;;;;;;;13.04;33.74;100957.50;6017036;23;20293;-85
2022/12/19 05:57:55;;;;;;;0.65;0.43;;;;;;;13.00;33.81;100962.41;6064441;23;20424;-85
2022/12/19 06:00:21;;;;;;;1.60;0.30;;;;;;;12.95;34.01;100954.97;6043429;23;20065;-86
2022/12/19 06:02:47;;;;;;;1.58;0.52;;;;;;;13.11;33.83;100972.66;6018759;23;20006;-85
2022/12/19 06:05:12;;;;;;;0.73;0.40;;;;;;;13.05;34.17;100967.22;6042315;23;20514;-85
2022/12/19 06:07:38;;;;;;;1.08;0.52;;;;;;;13.12;33.67;100982.41;6067262;23;20011;-85
2022/12/19 06:10:07;;;;;;;0.82;0.38;;;;;;;13.09;33.72;100976.53;6066852;23;20069;-86
2022/12/19 06:12:33;;;;;;;1.60;0.60;;;;;;;13.08;33.90;100978.41;6042076;23;20009;-85
2022/12/19 06:14:58;;;;;;;1.95;0.50;;;;;;;13.08;33.76;100983.78;6066171;23;20021;-86
2022/12/19 06:17:24;;;;;;;0.68;0.47;;;;;;;13.03;33.80;100983.50;6017773;23;20014;-85
2022/12/19 06:19:50;;;;;;;0.50;0.40;;;;;;;13.04;33.78;100989.69;6067522;23;20271;-85
2022/12/19 06:22:15;;;;;;;0.55;0.40;;;;;;;12.98;33.91;100980.56;6017671;23;20157;-85
2022/12/19 06:24:41;;;;;;;0.65;0.40;;;;;;;13.05;33.80;100991.38;6018769;23;20451;-85
2022/12/19 06:27:06;;;;;;;2.35;0.60;;;;;;;13.09;33.61;100998.00;6066517;23;20444;-85
2022/12/19 06:29:32;;;;;;;0.85;0.35;;;;;;;13.04;33.62;100995.06;6041626;23;20093;-85
2022/12/19 06:31:58;;;;;;;1.00;0.50;;;;;;;13.15;33.62;101008.00;6019669;23;20478;-85
2022/12/19 06:34:23;;;;;;;2.28;0.52;;;;;;;13.07;33.98;100992.88;6067292;23;20006;-85
2022/12/19 06:36:51;;;;;;;1.55;0.32;;;;;;;13.09;33.83;101000.69;6043425;23;20017;-85
2022/12/19 06:39:16;;;;;;;1.65;0.52;;;;;;;13.19;34.11;101014.66;6067008;23;20026;-85
2022/12/19 06:44:26;;;;;;;1.50;0.50;;;;;;;13.13;33.83;101005.50;6071200;23;20724;-85
2022/12/19 06:46:52;;;;;;;0.75;0.50;;;;;;;13.17;33.45;101010.50;6066625;23;20012;-85
2022/12/19 06:49:18;;;;;;;1.95;0.60;;;;;;;13.15;33.54;101008.84;6043034;23;20097;-86
2022/12/19 06:51:55;;;;;;;0.60;0.45;;;;;;;13.18;33.99;101022.88;6065827;23;20474;-85
2022/12/19 06:54:23;;;;;;;1.15;0.45;;;;;;;13.13;33.85;101005.50;6042066;23;20499;-85
2022/12/19 06:56:52;;;;;;;1.38;0.40;;;;;;;13.17;33.61;101010.50;6061540;23;20083;-85
2022/12/19 06:59:17;;;;;;;1.38;0.40;;;;;;;13.17;33.58;101029.28;6038901;23;20011;-85
2022/12/19 07:01:56;;;;;;;0.77;0.40;;;;;;;13.20;33.49;101037.78;6013548;23;20364;-86
2022/12/19 07:04:33;;;;;;;0.70;0.35;;;;;;;13.15;33.53;101029.47;6036203;23;20014;-85
2022/12/19 07:06:58;;;;;;;1.30;0.40;;;;;;;13.15;33.38;101041.03;6037599;23;20034;-86
2022/12/19 07:09:25;;;;;;;0.68;0.40;;;;;;;13.13;33.74;101036.88;6038720;23;20433;-85
2022/12/19 07:11:51;;;;;;;1.20;0.50;;;;;;;13.23;33.79;101036.56;6037441;23;20073;-85
2022/12/19 07:14:17;;;;;;;0.95;0.50;;;;;;;13.21;33.91;101039.47;6037341;23;20038;-85
2022/12/19 07:16:43;;;;;;;0.93;0.60;;;;;;;13.17;33.60;101038.16;6037909;23;20014;-85
2022/12/19 07:19:09;;;;;;;1.85;0.40;;;;;;;13.17;33.82;101038.16;6036248;23;20015;-86
2022/12/19 07:21:35;;;;;;;1.48;0.45;;;;;;;13.17;33.40;101040.84;6037441;23;20063;-86
2022/12/19 07:24:02;;;;;;;0.43;0.40;;;;;;;13.07;33.58;101013.47;6037596;23;19999;-86
2022/12/19 07:26:31;;;;;;;2.95;0.52;;;;;;;13.23;33.50;101036.56;6037320;23;20006;-85
2022/12/19 07:28:57;;;;;;;2.80;0.52;;;;;;;13.13;33.70;101018.09;6038135;23;20587;-85
2022/12/19 07:31:22;;;;;;;0.70;0.47;;;;;;;13.20;33.64;101037.78;6037326;23;20436;-86
2022/12/19 07:33:48;;;;;;;0.95;0.55;;;;;;;13.11;33.30;101023.66;6062141;23;20011;-85
2022/12/19 07:36:14;;;;;;;2.40;0.60;;;;;;;13.14;33.51;101027.81;6037812;23;20014;-86
2022/12/19 07:38:39;;;;;;;2.00;0.60;;;;;;;13.16;33.57;101025.78;6038419;23;20029;-86
2022/12/19 07:41:05;;;;;;;1.10;0.50;;;;;;;13.21;33.61;101028.72;6013282;23;20066;-85
2022/12/19 07:43:30;;;;;;;1.35;0.50;;;;;;;13.15;33.73;101026.78;6038690;23;20102;-86
2022/12/19 07:45:56;;;;;;;1.08;0.45;;;;;;;13.11;33.68;101022.84;6038376;23;20042;-85
2022/12/19 07:48:22;;;;;;;1.38;0.57;;;;;;;13.21;33.74;101044.84;6036286;23;20087;-86
2022/12/19 07:50:48;;;;;;;1.15;0.50;;;;;;;13.20;33.19;101037.78;6014368;23;20015;-85
2022/12/19 07:53:14;;;;;;;1.08;0.50;;;;;;;13.19;33.59;101037.97;6037462;23;20014;-85
2022/12/19 07:55:40;;;;;;;1.00;0.50;;;;;;;13.24;33.69;101038.25;6038589;23;20459;-85
2022/12/19 07:58:06;;;;;;;0.93;0.40;;;;;;;13.25;33.68;101040.75;6066969;23;20009;-85
2022/12/19 08:00:32;;;;;;;1.05;0.55;;;;;;;13.25;33.80;101046.13;6042123;23;20097;-85
2022/12/19 08:03:00;;;;;;;1.77;0.60;;;;;;;13.22;33.38;101040.28;6066209;23;20428;-85
2022/12/19 08:05:26;;;;;;;1.02;0.68;;;;;;;13.24;33.68;101047.13;6066282;23;20406;-86
2022/12/19 08:07:52;;;;;;;2.13;0.50;;;;;;;13.19;33.50;101038.81;6017957;23;20000;-85
2022/12/19 08:10:18;;;;;;;1.65;0.60;;;;;;;13.18;33.47;101042.53;6067260;23;20042;-86
2022/12/19 08:12:44;;;;;;;0.95;0.40;;;;;;;13.21;33.39;101052.03;6067104;23;20117;-85
2022/12/19 08:15:12;;;;;;;1.20;0.40;;;;;;;13.20;33.62;101053.91;6018025;23;20463;-85
2022/12/19 08:17:38;;;;;;;1.50;0.50;;;;;;;13.19;33.88;101048.72;6044214;23;20014;-85
2022/12/19 08:20:06;;;;;;;0.52;0.40;;;;;;;13.12;33.75;101044.13;6066427;23;20086;-85
2022/12/19 08:22:31;;;;;;;0.63;0.40;;;;;;;13.22;33.56;101067.97;6042898;23;20101;-85
2022/12/19 08:24:57;;;;;;;1.20;0.50;;;;;;;13.17;33.52;101054.28;6066064;23;20493;-85
2022/12/19 08:27:23;;;;;;;0.75;0.50;;;;;;;13.24;33.43;101076.66;6015268;23;20483;-85
2022/12/19 08:29:48;;;;;;;1.60;0.50;;;;;;;13.26;33.67;101074.63;6019155;23;20020;-85
2022/12/19 08:32:14;;;;;;;1.05;0.47;;;;;;;13.25;33.78;101064.91;6065506;23;20391;-85
2022/12/19 08:34:40;;;;;;;0.93;0.40;;;;;;;13.29;33.58;101074.22;6042516;23;20006;-85
2022/12/19 08:37:06;;;;;;;1.05;0.40;;;;;;;13.21;33.46;101060.94;6018254;23;20091;-85
2022/12/19 08:39:32;;;;;;;1.13;0.40;;;;;;;13.21;33.29;101066.31;6062644;23;20002;-86
2022/12/19 08:41:57;;;;;;;0.68;0.50;;;;;;;13.20;33.41;101053.06;6062332;23;20474;-85
2022/12/19 08:44:25;;;;;;;1.63;0.70;;;;;;;13.21;33.62;101066.31;6016978;23;20106;-85
2022/12/19 08:46:54;;;;;;;1.27;0.50;;;;;;;13.23;33.60;101069.63;6039121;23;20455;-85
2022/12/19 08:49:19;;;;;;;0.82;0.40;;;;;;;13.21;33.58;101076.19;6040208;23;20014;-85
2022/12/19 08:51:45;;;;;;;0.52;0.40;;;;;;;13.32;33.79;101092.69;6062389;23;20006;-86
2022/12/19 08:54:11;;;;;;;1.17;0.52;;;;;;;13.27;33.58;101081.66;6062140;23;20093;-85
2022/12/19 08:56:37;;;;;;;2.05;0.40;;;;;;;13.22;33.29;101080.56;6012926;23;20517;-86
2022/12/19 08:59:05;;;;;;;1.08;0.40;;;;;;;13.30;33.48;101093.88;6033658;23;20484;-86
2022/12/19 09:01:31;;;;;;;2.00;0.52;;;;;;;13.30;33.61;101086.66;6036616;23;20021;-85
2022/12/19 09:03:59;;;;;;;1.00;0.52;;;;;;;13.28;33.54;101082.47;6011225;23;20274;-86
2022/12/19 09:06:25;;;;;;;1.23;0.52;;;;;;;13.30;33.72;101083.13;6033242;23;20350;-85
2022/12/19 09:08:54;;;;;;;1.13;0.55;;;;;;;13.23;33.54;101096.47;6034958;23;20010;-85
2022/12/19 09:11:19;;;;;;;1.05;0.50;;;;;;;13.26;33.30;101084.50;6034602;23;20046;-85
2022/12/19 09:13:46;;;;;;;1.80;0.50;;;;;;;13.28;33.34;101087.84;6035076;23;20002;-85
2022/12/19 09:16:17;;;;;;;1.35;0.68;;;;;;;13.17;33.47;101070.38;6036576;23;20021;-85
2022/12/19 09:18:47;;;;;;;1.17;0.30;;;;;;;13.33;33.62;101086.31;6033708;23;20458;-85
2022/12/19 09:21:13;;;;;;;0.82;0.40;;;;;;;13.25;33.29;101067.59;6035664;23;20325;-85
2022/12/19 09:23:39;;;;;;;0.73;0.40;;;;;;;13.27;33.71;101070.91;6036989;23;20009;-85
2022/12/19 09:26:07;;;;;;;1.30;0.52;;;;;;;13.34;33.51;101085.25;6008647;23;20021;-86
2022/12/19 09:28:33;;;;;;;1.13;0.60;;;;;;;13.23;33.16;101071.47;6031117;23;20006;-85
2022/12/19 09:31:03;;;;;;;0.50;0.43;;;;;;;13.24;33.35;101071.28;6034363;23;20011;-85
2022/12/19 09:33:30;;;;;;;0.95;0.60;;;;;;;13.15;33.44;101056.31;6034881;23;20015;-85
2022/12/19 09:35:58;;;;;;;1.00;0.57;;;;;;;13.19;33.47;101060.28;6036195;23;20397;-86
2022/12/19 09:38:24;;;;;;;2.28;0.50;;;;;;;13.27;33.53;101070.91;6012392;23;20479;-85
2022/12/19 09:41:09;;;;;;;1.42;0.50;;;;;;;13.37;33.70;101080.56;6034212;23;20484;-85
2022/12/19 09:44:16;;;;;;;1.20;0.40;;;;;;;13.27;33.58;101070.91;6036222;23;20049;-85
2022/12/19 09:47:01;;;;;;;1.10;0.60;;;;;;;13.27;33.36;101073.59;6036930;23;20014;-85
2022/12/19 09:49:37;;;;;;;2.33;0.60;;;;;;;13.32;33.49;101078.44;6036611;23;20377;-85
2022/12/19 09:52:33;;;;;;;1.50;0.50;;;;;;;13.35;33.40;101083.44;6007664;23;20155;-85
2022/12/19 09:55:14;;;;;;;0.80;0.52;;;;;;;13.32;33.40;101084.63;6059229;23;20015;-85
2022/12/19 09:57:49;;;;;;;0.93;0.38;;;;;;;13.36;33.65;101084.25;6059169;23;20046;-85
2022/12/19 10:00:20;;;;;;;0.77;0.40;;;;;;;13.30;33.50;101075.09;6059230;23;20033;-85
2022/12/19 10:03:01;;;;;;;0.90;0.47;;;;;;;13.34;33.32;101085.25;6036191;23;20129;-85
2022/12/19 10:05:37;;;;;;;0.60;0.40;;;;;;;13.32;33.50;101071.22;6012104;23;20448;-85
2022/12/19 10:08:17;;;;;;;1.85;0.40;;;;;;;13.32;33.50;101067.69;6036227;23;20143;-85
2022/12/19 10:10:58;;;;;;;0.85;0.47;;;;;;;13.28;33.19;101051.09;6036724;23;20090;-85
2022/12/19 10:13:37;;;;;;;0.73;0.40;;;;;;;13.33;33.48;101059.47;6059294;23;19999;-85
2022/12/19 10:16:14;;;;;;;0.93;0.47;;;;;;;13.37;33.62;101061.78;6034766;23;20451;-85
2022/12/19 10:19:07;;;;;;;1.02;0.50;;;;;;;13.32;33.54;101046.22;6060324;23;20336;-85
2022/12/19 10:22:26;;;;;;;0.80;0.43;;;;;;;13.36;33.13;101054.72;6060140;23;20021;-86
2022/12/19 10:25:17;;;;;;;2.90;0.60;;;;;;;13.33;33.64;101046.03;6033040;23;20066;-85
2022/12/19 10:28:01;;;;;;;2.20;0.63;;;;;;;13.33;33.44;101048.72;6060137;23;20537;-85
2022/12/19 10:30:27;;;;;;;0.43;0.30;;;;;;;13.33;33.65;101040.66;6058070;23;20014;-85
2022/12/19 10:33:11;;;;;;;1.13;0.45;;;;;;;13.27;33.55;101035.19;6014475;23;20085;-86
2022/12/19 10:35:42;;;;;;;0.70;0.50;;;;;;;13.17;33.44;101032.78;6039131;23;20069;-86
2022/12/19 10:38:10;;;;;;;1.58;0.60;;;;;;;13.34;33.44;101050.38;6038303;23;20039;-86
2022/12/19 10:41:03;;;;;;;0.88;0.40;;;;;;;13.27;33.44;101044.06;6060440;23;20098;-86
2022/12/19 10:43:40;;;;;;;0.50;0.30;;;;;;;13.29;33.37;101055.44;6039447;23;20029;-86
2022/12/19 10:46:19;;;;;;;1.52;0.50;;;;;;;13.28;33.79;101043.06;6038166;23;20011;-85
2022/12/19 10:48:45;;;;;;;1.58;0.60;;;;;;;13.30;33.49;101042.88;6015234;23;20336;-86
2022/12/19 10:51:12;;;;;;;1.45;0.50;;;;;;;13.26;33.56;101037.06;6037203;23;20378;-85
2022/12/19 10:53:38;;;;;;;0.85;0.50;;;;;;;13.29;33.24;101047.38;6038893;23;20030;-86
2022/12/19 10:56:21;;;;;;;0.75;0.40;;;;;;;13.20;33.45;101027.06;6037940;23;20507;-85
2022/12/19 10:58:54;;;;;;;1.58;0.52;;;;;;;13.28;33.46;101035.00;6035174;23;20019;-85
2022/12/19 11:01:33;;;;;;;1.73;0.60;;;;;;;13.30;33.75;101041.00;6036908;23;20086;-85
2022/12/19 11:04:18;;;;;;;1.08;0.65;;;;;;;13.27;33.80;101027.97;6037606;23;20062;-85
2022/12/19 11:07:04;;;;;;;0.75;0.50;;;;;;;13.29;33.42;101033.13;6037555;23;20030;-85
2022/12/19 11:09:30;;;;;;;2.03;0.40;;;;;;;13.27;33.44;101033.31;6060435;23;20063;-85
2022/12/19 11:12:11;;;;;;;0.63;0.35;;;;;;;13.32;33.56;101041.69;6062042;23;20014;-86
2022/12/19 11:14:38;;;;;;;0.77;0.40;;;;;;;13.23;33.49;101037.41;6061548;23;20459;-86
2022/12/19 11:17:05;;;;;;;1.45;0.70;;;;;;;13.29;33.43;101047.38;6014588;23;20041;-85
2022/12/19 11:19:33;;;;;;;2.15;0.52;;;;;;;13.21;33.69;101023.38;6060597;23;20013;-85
2022/12/19 11:22:03;;;;;;;2.05;0.57;;;;;;;13.29;33.43;101039.34;6038170;23;20042;-86
2022/12/19 11:24:34;;;;;;;1.33;0.50;;;;;;;13.25;33.52;101035.38;6014843;23;20011;-86
2022/12/19 11:27:00;;;;;;;0.52;0.52;;;;;;;13.24;33.23;101041.75;6014043;23;20085;-86
2022/12/19 11:29:46;;;;;;;1.58;0.63;;;;;;;13.19;33.51;101032.63;6036399;23;20009;-86
2022/12/19 11:32:32;;;;;;;0.30;0.30;;;;;;;13.18;33.49;101034.47;6061502;23;20007;-86
2022/12/19 11:35:16;;;;;;;0.90;0.40;;;;;;;13.22;33.80;101030.38;6060722;23;20122;-85
2022/12/19 11:37:51;;;;;;;1.17;0.60;;;;;;;13.19;34.00;101022.69;6039487;23;20440;-85
2022/12/19 11:40:29;;;;;;;1.17;0.50;;;;;;;13.31;33.77;101039.16;6038136;23;20037;-86
2022/12/19 11:43:21;;;;;;;0.95;0.40;;;;;;;13.30;33.65;101043.69;6060703;23;20003;-86